createdAt,value
2023-02-08T00:00:48.660Z,101697.69
2023-02-08T00:03:22.419Z,101696.91
2023-02-08T00:05:54.209Z,101703.00
2023-02-08T00:08:26.004Z,101703.91
2023-02-08T00:10:58.065Z,101705.75
2023-02-08T00:13:30.129Z,101709.22
2023-02-08T00:16:04.014Z,101705.84
2023-02-08T00:18:35.709Z,101706.66
2023-02-08T00:21:15.990Z,101705.84
2023-02-08T00:23:48.172Z,101704.97
2023-02-08T00:26:20.042Z,101711.03
2023-02-08T00:28:51.985Z,101707.69
2023-02-08T00:31:23.813Z,101704.31
2023-02-08T00:33:56.640Z,101706.94
2023-02-08T00:36:30.557Z,101708.69
2023-02-08T00:39:02.854Z,101711.25
2023-02-08T00:41:34.563Z,101708.66
2023-02-08T00:44:09.011Z,101711.25
2023-02-08T00:46:40.714Z,101715.56
2023-02-08T00:49:12.510Z,101724.19
2023-02-08T00:51:44.175Z,101719.94
2023-02-08T00:54:18.787Z,101724.22
2023-02-08T00:56:50.472Z,101719.06
2023-02-08T00:59:23.827Z,101712.19
2023-02-08T01:01:55.538Z,101719.94
2023-02-08T01:04:28.436Z,101715.66
2023-02-08T01:07:00.125Z,101718.34
2023-02-08T01:09:32.738Z,101720.94
2023-02-08T01:12:06.457Z,101722.72
2023-02-08T01:14:39.454Z,101719.28
2023-02-08T01:17:11.202Z,101725.31
2023-02-08T01:19:43.433Z,101730.47
2023-02-08T01:22:15.155Z,101738.22
2023-02-08T01:24:46.850Z,101734.78
2023-02-08T01:27:18.523Z,101734.06
2023-02-08T01:29:51.428Z,101735.81
2023-02-08T01:32:24.979Z,101734.97
2023-02-08T01:34:56.672Z,101731.53
2023-02-08T01:37:28.347Z,101728.03
2023-02-08T01:40:00.030Z,101731.41
2023-02-08T01:42:31.688Z,101726.31
2023-02-08T01:45:17.642Z,101725.44
2023-02-08T01:47:55.136Z,101710.84
2023-02-08T01:50:32.455Z,101708.31
2023-02-08T01:53:06.191Z,101703.16
2023-02-08T01:55:43.077Z,101712.63
2023-02-08T01:58:19.396Z,101712.63
2023-02-08T02:00:51.216Z,101712.63
2023-02-08T02:03:24.923Z,101711.81
2023-02-08T02:06:08.218Z,101710.13
2023-02-08T02:08:49.522Z,101704.09
2023-02-08T02:11:21.435Z,101703.25
2023-02-08T02:13:56.367Z,101708.41
2023-02-08T02:16:28.124Z,101700.72
2023-02-08T02:18:59.792Z,101696.41
2023-02-08T02:21:54.808Z,101701.53
2023-02-08T02:24:48.212Z,101697.28
2023-02-08T02:27:27.614Z,101711.97
2023-02-08T02:30:24.533Z,101715.44
2023-02-08T02:32:59.264Z,101712.88
2023-02-08T02:35:54.506Z,101712.88
2023-02-08T02:39:02.933Z,101717.22
2023-02-08T02:42:21.419Z,101716.44
2023-02-08T02:45:23.884Z,101718.22
2023-02-08T02:48:03.502Z,101722.56
2023-02-08T02:51:06.140Z,101726.97
2023-02-08T02:53:45.045Z,101721.81
2023-02-08T02:56:27.226Z,101728.72
2023-02-08T02:59:06.462Z,101726.06
2023-02-08T03:01:39.641Z,101724.34
2023-02-08T03:04:15.702Z,101730.34
2023-02-08T03:07:08.886Z,101722.63
2023-02-08T03:10:04.860Z,101726.06
2023-02-08T03:12:55.294Z,101732.94
2023-02-08T03:15:48.336Z,101737.19
2023-02-08T03:18:50.465Z,101739.00
2023-02-08T03:21:45.880Z,101740.78
2023-02-08T03:24:23.450Z,101733.91
2023-02-08T03:27:01.440Z,101736.47
2023-02-08T03:29:48.092Z,101739.91
2023-02-08T03:32:27.146Z,101738.16
2023-02-08T03:35:10.980Z,101734.72
2023-02-08T03:37:48.208Z,101736.44
2023-02-08T03:40:26.983Z,101739.03
2023-02-08T03:43:03.519Z,101735.63
2023-02-08T03:45:43.448Z,101747.63
2023-02-08T03:48:18.446Z,101741.63
2023-02-08T03:50:53.678Z,101740.78
2023-02-08T03:53:27.568Z,101745.09
2023-02-08T03:56:06.020Z,101751.97
2023-02-08T03:59:03.901Z,101757.13
2023-02-08T04:01:45.101Z,101764.00
2023-02-08T04:04:20.905Z,101773.53
2023-02-08T04:06:53.207Z,101759.88
2023-02-08T04:09:24.913Z,101758.97
2023-02-08T04:11:56.671Z,101758.97
2023-02-08T04:14:28.353Z,101761.56
2023-02-08T04:17:00.214Z,101759.84
2023-02-08T04:19:32.258Z,101757.25
2023-02-08T04:22:03.932Z,101762.41
2023-02-08T04:24:35.548Z,101767.56
2023-02-08T04:27:08.296Z,101762.41
2023-02-08T04:29:43.987Z,101762.38
2023-02-08T04:32:15.707Z,101762.41
2023-02-08T04:34:47.441Z,101765.84
2023-02-08T04:37:19.326Z,101765.94
2023-02-08T04:39:51.367Z,101764.22
2023-02-08T04:42:23.113Z,101766.81
2023-02-08T04:44:54.792Z,101760.00
2023-02-08T04:47:26.468Z,101761.69
2023-02-08T04:49:58.211Z,101762.53
2023-02-08T04:52:29.921Z,101762.56
2023-02-08T04:55:01.585Z,101766.81
2023-02-08T04:57:33.310Z,101770.25
2023-02-08T05:00:05.619Z,101771.13
2023-02-08T05:02:37.333Z,101776.34
2023-02-08T05:05:09.072Z,101784.06
2023-02-08T05:07:40.768Z,101784.06
2023-02-08T05:10:12.663Z,101773.75
2023-02-08T05:12:47.248Z,101772.94
2023-02-08T05:15:18.932Z,101776.38
2023-02-08T05:17:50.651Z,101771.22
2023-02-08T05:20:22.366Z,101784.97
2023-02-08T05:22:54.089Z,101783.28
2023-02-08T05:25:25.922Z,101778.97
2023-02-08T05:27:58.811Z,101782.44
2023-02-08T05:30:31.476Z,101772.16
2023-02-08T05:33:03.205Z,101779.91
2023-02-08T05:35:34.858Z,101779.06
2023-02-08T05:38:06.984Z,101782.50
2023-02-08T05:40:39.011Z,101791.06
2023-02-08T05:43:10.852Z,101788.50
2023-02-08T05:45:42.541Z,101791.03
2023-02-08T05:48:14.362Z,101798.75
2023-02-08T05:50:46.109Z,101796.19
2023-02-08T05:53:20.283Z,101788.47
2023-02-08T05:55:52.132Z,101793.59
2023-02-08T05:58:27.106Z,101798.75
2023-02-08T06:00:58.850Z,101814.22
2023-02-08T06:03:30.572Z,101809.03
2023-02-08T06:06:02.282Z,101809.91
2023-02-08T06:08:34.107Z,101817.59
2023-02-08T06:11:06.392Z,101820.19
2023-02-08T06:13:39.288Z,101824.50
2023-02-08T06:16:12.699Z,101828.78
2023-02-08T06:18:44.387Z,101833.97
2023-02-08T06:21:16.076Z,101830.53
2023-02-08T06:23:47.773Z,101834.84
2023-02-08T06:26:19.500Z,101833.13
2023-02-08T06:28:51.237Z,101833.97
2023-02-08T06:31:23.014Z,101829.69
2023-02-08T06:33:54.742Z,101827.13
2023-02-08T06:36:26.452Z,101833.13
2023-02-08T06:38:58.133Z,101830.53
2023-02-08T06:41:29.798Z,101838.22
2023-02-08T06:44:02.290Z,101839.06
2023-02-08T06:46:33.999Z,101833.88
2023-02-08T06:49:05.747Z,101826.16
2023-02-08T06:51:37.464Z,101827.84
2023-02-08T06:54:09.155Z,101832.84
2023-02-08T06:56:40.913Z,101835.84
2023-02-08T06:59:12.608Z,101833.56
2023-02-08T07:01:44.252Z,101823.09
2023-02-08T07:04:15.943Z,101832.16
2023-02-08T07:06:50.751Z,101842.63
2023-02-08T07:09:22.803Z,101827.09
2023-02-08T07:11:54.455Z,101839.00
2023-02-08T07:14:26.161Z,101831.63
2023-02-08T07:16:57.867Z,101836.16
2023-02-08T07:19:29.844Z,101832.78
2023-02-08T07:22:07.238Z,101840.47
2023-02-08T07:24:41.415Z,101835.59
2023-02-08T07:27:13.567Z,101830.22
2023-02-08T07:29:45.229Z,101825.84
2023-02-08T07:32:17.063Z,101832.53
2023-02-08T07:34:48.761Z,101826.06
2023-02-08T07:37:20.436Z,101829.75
2023-02-08T07:39:52.097Z,101835.69
2023-02-08T07:42:23.796Z,101839.25
2023-02-08T07:45:08.148Z,101838.94
2023-02-08T07:47:39.877Z,101842.03
2023-02-08T07:50:11.614Z,101844.50
2023-02-08T07:52:46.075Z,101841.25
2023-02-08T07:55:18.036Z,101851.03
2023-02-08T07:57:50.338Z,101847.25
2023-02-08T08:00:22.050Z,101845.59
2023-02-08T08:02:54.320Z,101846.94
2023-02-08T08:05:26.056Z,101832.81
2023-02-08T08:07:57.729Z,101840.38
2023-02-08T08:10:29.412Z,101830.28
2023-02-08T08:13:01.175Z,101823.69
2023-02-08T08:15:33.297Z,101817.94
2023-02-08T08:18:05.107Z,101817.47
2023-02-08T08:20:39.685Z,101823.75
2023-02-08T08:23:14.494Z,101817.72
2023-02-08T08:25:46.134Z,101818.59
2023-02-08T08:28:17.955Z,101818.28
2023-02-08T08:30:49.891Z,101817.34
2023-02-08T08:33:21.641Z,101818.91
2023-02-08T08:35:53.444Z,101818.91
2023-02-08T08:38:25.303Z,101816.66
2023-02-08T08:40:57.091Z,101819.00
2023-02-08T08:43:28.817Z,101819.44
2023-02-08T08:46:00.651Z,101813.22
2023-02-08T08:48:33.914Z,101815.56
2023-02-08T08:51:06.647Z,101823.69
2023-02-08T08:53:38.848Z,101813.00
2023-02-08T08:56:10.590Z,101820.69
2023-02-08T08:58:43.473Z,101829.25
2023-02-08T09:01:15.398Z,101831.00
2023-02-08T09:03:48.343Z,101832.84
2023-02-08T09:06:20.139Z,101825.44
2023-02-08T09:08:51.952Z,101822.25
2023-02-08T09:11:23.672Z,101817.13
2023-02-08T09:13:56.331Z,101823.22
2023-02-08T09:16:28.227Z,101823.03
2023-02-08T09:19:04.686Z,101819.19
2023-02-08T09:21:36.748Z,101824.47
2023-02-08T09:24:08.899Z,101824.13
2023-02-08T09:26:40.732Z,101815.56
2023-02-08T09:29:12.448Z,101816.78
2023-02-08T09:31:44.385Z,101815.19
2023-02-08T09:34:16.228Z,101814.22
2023-02-08T09:36:47.931Z,101823.66
2023-02-08T09:39:22.815Z,101818.88
2023-02-08T09:42:13.274Z,101819.81
2023-02-08T09:44:47.956Z,101810.97
2023-02-08T09:47:28.925Z,101815.28
2023-02-08T09:50:14.227Z,101819.06
2023-02-08T09:52:54.960Z,101807.63
2023-02-08T09:56:01.830Z,101814.34
2023-02-08T09:58:40.304Z,101819.53
2023-02-08T10:01:26.352Z,101813.38
2023-02-08T10:04:09.010Z,101809.53
2023-02-08T10:06:41.333Z,101808.84
2023-02-08T10:09:16.350Z,101796.88
2023-02-08T10:11:54.669Z,101800.63
2023-02-08T10:14:56.034Z,101788.31
2023-02-08T10:17:41.638Z,101793.34
2023-02-08T10:20:25.318Z,101793.47
2023-02-08T10:23:16.022Z,101793.94
2023-02-08T10:26:14.435Z,101792.75
2023-02-08T10:28:58.104Z,101787.84
2023-02-08T10:31:44.019Z,101782.59
2023-02-08T10:34:37.221Z,101780.81
2023-02-08T10:37:29.427Z,101778.00
2023-02-08T10:40:14.789Z,101772.38
2023-02-08T10:42:52.659Z,101777.44
2023-02-08T10:45:36.724Z,101765.00
2023-02-08T10:48:15.939Z,101762.03
2023-02-08T10:50:48.237Z,101755.06
2023-02-08T10:53:20.581Z,101760.88
2023-02-08T10:55:52.705Z,101755.38
2023-02-08T10:58:28.324Z,101764.47
2023-02-08T11:01:01.253Z,101755.63
2023-02-08T11:03:34.242Z,101754.16
2023-02-08T11:06:21.892Z,101751.72
2023-02-08T11:08:58.812Z,101750.88
2023-02-08T11:11:39.307Z,101748.34
2023-02-08T11:14:45.506Z,101746.72
2023-02-08T11:17:31.360Z,101745.16
2023-02-08T11:20:06.267Z,101751.50
2023-02-08T11:22:38.011Z,101743.59
2023-02-08T11:25:35.932Z,101743.28
2023-02-08T11:28:22.761Z,101741.38
2023-02-08T11:31:02.876Z,101746.25
2023-02-08T11:33:37.200Z,101755.22
2023-02-08T11:36:13.554Z,101732.28
2023-02-08T11:38:45.244Z,101724.25
2023-02-08T11:41:20.475Z,101724.91
2023-02-08T11:43:55.078Z,101728.13
2023-02-08T11:46:29.426Z,101721.66
2023-02-08T11:49:01.572Z,101722.56
2023-02-08T11:51:36.360Z,101723.97
2023-02-08T11:54:30.801Z,101724.69
2023-02-08T11:57:10.994Z,101717.69
2023-02-08T11:59:42.719Z,101714.84
2023-02-08T12:02:48.408Z,101711.41
2023-02-08T12:05:29.528Z,101721.06
2023-02-08T12:08:16.160Z,101727.25
2023-02-08T12:10:54.842Z,101718.06
2023-02-08T12:13:50.442Z,101711.16
2023-02-08T12:16:25.740Z,101708.69
2023-02-08T12:19:39.373Z,101704.53
2023-02-08T12:22:13.148Z,101703.59
2023-02-08T12:25:06.305Z,101695.47
2023-02-08T12:27:59.464Z,101697.50
2023-02-08T12:30:40.639Z,101696.34
2023-02-08T12:33:33.576Z,101690.09
2023-02-08T12:36:05.733Z,101680.03
2023-02-08T12:39:22.349Z,101678.75
2023-02-08T12:42:12.502Z,101670.25
2023-02-08T12:45:05.675Z,101669.50
2023-02-08T12:48:04.683Z,101666.53
2023-02-08T12:50:50.935Z,101653.75
2023-02-08T12:53:35.911Z,101648.47
2023-02-08T12:56:32.856Z,101654.69
2023-02-08T12:59:13.467Z,101639.38
2023-02-08T13:01:51.358Z,101637.00
2023-02-08T13:04:33.096Z,101637.44
2023-02-08T13:07:19.732Z,101639.50
2023-02-08T13:10:29.488Z,101619.91
2023-02-08T13:13:19.968Z,101616.03
2023-02-08T13:16:30.121Z,101612.25
2023-02-08T13:19:32.441Z,101609.25
2023-02-08T13:22:05.748Z,101609.44
2023-02-08T13:24:44.892Z,101607.94
2023-02-08T13:27:19.400Z,101614.44
2023-02-08T13:29:52.917Z,101608.31
2023-02-08T13:32:44.307Z,101607.06
2023-02-08T13:35:29.257Z,101610.81
2023-02-08T13:38:20.893Z,101603.53
2023-02-08T13:41:22.757Z,101616.97
2023-02-08T13:43:57.399Z,101611.06
2023-02-08T13:46:35.253Z,101615.69
2023-02-08T13:49:07.041Z,101611.19
2023-02-08T13:51:53.181Z,101622.13
2023-02-08T13:54:24.972Z,101620.94
2023-02-08T13:56:57.439Z,101617.47
2023-02-08T13:59:29.108Z,101620.28
2023-02-08T14:02:12.972Z,101619.44
2023-02-08T14:04:45.635Z,101612.06
2023-02-08T14:07:32.920Z,101616.97
2023-02-08T14:10:37.359Z,101611.44
2023-02-08T14:13:31.135Z,101604.66
2023-02-08T14:16:38.670Z,101612.22
2023-02-08T14:19:16.174Z,101611.72
2023-02-08T14:21:59.268Z,101605.72
2023-02-08T14:24:43.729Z,101614.19
2023-02-08T14:27:33.380Z,101609.78
2023-02-08T14:30:07.780Z,101609.94
2023-02-08T14:32:42.129Z,101604.59
2023-02-08T14:35:13.822Z,101610.59
2023-02-08T14:37:50.731Z,101605.94
2023-02-08T14:40:32.927Z,101609.84
2023-02-08T14:43:19.693Z,101610.09
2023-02-08T14:45:55.786Z,101599.25
2023-02-08T14:48:32.962Z,101602.03
2023-02-08T14:51:10.708Z,101591.97
2023-02-08T14:53:42.344Z,101596.16
2023-02-08T14:56:29.744Z,101589.31
2023-02-08T14:59:18.612Z,101592.75
2023-02-08T15:01:54.359Z,101588.69
2023-02-08T15:04:26.926Z,101582.63
2023-02-08T15:07:07.566Z,101582.53
2023-02-08T15:09:42.624Z,101576.50
2023-02-08T15:12:34.317Z,101587.31
2023-02-08T15:15:21.289Z,101582.25
2023-02-08T15:17:54.886Z,101588.47
2023-02-08T15:20:33.069Z,101587.47
2023-02-08T15:23:23.892Z,101577.38
2023-02-08T15:25:58.346Z,101578.28
2023-02-08T15:28:34.058Z,101586.38
2023-02-08T15:31:09.908Z,101588.13
2023-02-08T15:33:44.719Z,101582.06
2023-02-08T15:36:27.897Z,101588.22
2023-02-08T15:39:03.772Z,101584.09
2023-02-08T15:41:38.596Z,101587.66
2023-02-08T15:44:18.582Z,101593.75
2023-02-08T15:46:55.614Z,101581.88
2023-02-08T15:49:50.707Z,101580.19
2023-02-08T15:52:25.862Z,101597.44
2023-02-08T15:54:57.699Z,101585.63
2023-02-08T15:57:47.048Z,101585.72
2023-02-08T16:00:28.606Z,101588.47
2023-02-08T16:03:06.835Z,101589.41
2023-02-08T16:05:41.567Z,101584.16
2023-02-08T16:08:21.628Z,101585.91
2023-02-08T16:10:57.501Z,101582.53
2023-02-08T16:13:34.182Z,101588.84
2023-02-08T16:16:44.883Z,101581.94
2023-02-08T16:19:25.689Z,101576.00
2023-02-08T16:22:25.906Z,101582.00
2023-02-08T16:25:23.973Z,101585.47
2023-02-08T16:27:55.748Z,101572.53
2023-02-08T16:30:29.736Z,101578.63
2023-02-08T16:33:08.793Z,101577.78
2023-02-08T16:35:40.706Z,101583.13
2023-02-08T16:38:21.443Z,101584.03
2023-02-08T16:40:59.277Z,101592.00
2023-02-08T16:43:32.765Z,101599.31
2023-02-08T16:46:10.727Z,101592.56
2023-02-08T16:48:50.419Z,101589.97
2023-02-08T16:51:28.773Z,101583.09
2023-02-08T16:54:11.398Z,101577.09
2023-02-08T16:56:44.120Z,101571.13
2023-02-08T16:59:16.843Z,101578.13
2023-02-08T17:01:50.119Z,101571.22
2023-02-08T17:04:22.225Z,101572.31
2023-02-08T17:06:54.420Z,101561.28
2023-02-08T17:09:26.118Z,101571.94
2023-02-08T17:11:57.843Z,101564.34
2023-02-08T17:14:29.512Z,101573.03
2023-02-08T17:17:01.296Z,101565.22
2023-02-08T17:19:32.980Z,101566.28
2023-02-08T17:22:04.688Z,101564.88
2023-02-08T17:24:38.873Z,101576.25
2023-02-08T17:27:14.547Z,101562.66
2023-02-08T17:29:46.300Z,101577.31
2023-02-08T17:32:17.987Z,101578.16
2023-02-08T17:34:49.648Z,101582.50
2023-02-08T17:37:22.056Z,101575.66
2023-02-08T17:39:53.735Z,101578.25
2023-02-08T17:42:25.440Z,101573.91
2023-02-08T17:44:57.114Z,101579.09
2023-02-08T17:47:28.835Z,101575.66
2023-02-08T17:50:02.409Z,101578.28
2023-02-08T17:52:34.127Z,101574.22
2023-02-08T17:55:07.346Z,101577.72
2023-02-08T17:57:40.924Z,101575.19
2023-02-08T18:00:18.810Z,101577.94
2023-02-08T18:02:55.148Z,101586.91
2023-02-08T18:05:28.504Z,101579.25
2023-02-08T18:08:00.443Z,101583.59
2023-02-08T18:10:32.134Z,101587.03
2023-02-08T18:13:03.839Z,101593.09
2023-02-08T18:15:35.510Z,101590.59
2023-02-08T18:18:07.218Z,101584.75
2023-02-08T18:20:43.885Z,101583.97
2023-02-08T18:23:15.666Z,101581.44
2023-02-08T18:25:48.658Z,101575.47
2023-02-08T18:28:20.387Z,101577.34
2023-02-08T18:30:52.132Z,101585.09
2023-02-08T18:33:23.939Z,101580.06
2023-02-08T18:35:55.609Z,101576.78
2023-02-08T18:38:27.709Z,101581.13
2023-02-08T18:40:59.398Z,101574.28
2023-02-08T18:43:31.096Z,101581.22
2023-02-08T18:46:05.580Z,101577.75
2023-02-08T18:48:41.282Z,101580.31
2023-02-08T18:51:14.626Z,101582.88
2023-02-08T18:53:50.981Z,101586.34
2023-02-08T18:56:25.238Z,101585.53
2023-02-08T18:58:59.907Z,101588.13
2023-02-08T19:01:31.677Z,101591.72
2023-02-08T19:04:04.430Z,101593.59
2023-02-08T19:06:37.548Z,101584.97
2023-02-08T19:09:09.507Z,101591.16
2023-02-08T19:11:41.510Z,101594.66
2023-02-08T19:14:17.267Z,101591.19
2023-02-08T19:16:49.475Z,101586.09
2023-02-08T19:19:21.460Z,101584.41
2023-02-08T19:21:56.160Z,101582.63
2023-02-08T19:24:27.955Z,101583.66
2023-02-08T19:27:00.095Z,101583.91
2023-02-08T19:29:33.565Z,101587.53
2023-02-08T19:32:07.654Z,101588.50
2023-02-08T19:34:39.465Z,101589.38
2023-02-08T19:37:11.162Z,101593.66
2023-02-08T19:39:42.955Z,101584.09
2023-02-08T19:42:14.641Z,101582.28
2023-02-08T19:44:46.369Z,101580.53
2023-02-08T19:47:18.541Z,101577.09
2023-02-08T19:49:50.249Z,101568.56
2023-02-08T19:52:24.567Z,101567.69
2023-02-08T19:54:56.276Z,101567.66
2023-02-08T19:57:27.945Z,101556.47
2023-02-08T20:00:00.750Z,101558.31
2023-02-08T20:02:43.796Z,101547.97
2023-02-08T20:05:15.540Z,101545.53
2023-02-08T20:07:47.225Z,101545.59
2023-02-08T20:10:18.980Z,101549.22
2023-02-08T20:12:50.665Z,101544.25
2023-02-08T20:15:22.355Z,101544.25
2023-02-08T20:17:54.025Z,101539.06
2023-02-08T20:20:27.186Z,101536.47
2023-02-08T20:22:58.957Z,101536.41
2023-02-08T20:25:30.835Z,101530.28
2023-02-08T20:28:02.628Z,101533.88
2023-02-08T20:30:40.904Z,101525.31
2023-02-08T20:33:14.768Z,101526.19
2023-02-08T20:35:47.362Z,101523.56
2023-02-08T20:38:19.084Z,101530.47
2023-02-08T20:40:50.774Z,101530.50
2023-02-08T20:43:22.405Z,101516.72
2023-02-08T20:45:54.142Z,101518.53
2023-02-08T20:48:26.026Z,101512.69
2023-02-08T20:51:08.203Z,101510.97
2023-02-08T20:53:41.303Z,101496.38
2023-02-08T20:56:28.075Z,101501.59
2023-02-08T20:59:08.647Z,101494.75
2023-02-08T21:01:40.463Z,101486.22
2023-02-08T21:04:13.253Z,101492.25
2023-02-08T21:06:46.294Z,101489.69
2023-02-08T21:09:19.680Z,101485.34
2023-02-08T21:11:52.179Z,101486.16
2023-02-08T21:14:24.211Z,101490.63
2023-02-08T21:16:58.654Z,101478.53
2023-02-08T21:19:30.737Z,101488.06
2023-02-08T21:22:03.013Z,101480.16
2023-02-08T21:24:34.699Z,101483.44
2023-02-08T21:27:06.720Z,101485.22
2023-02-08T21:29:38.761Z,101483.56
2023-02-08T21:32:10.663Z,101490.50
2023-02-08T21:34:42.409Z,101497.47
2023-02-08T21:37:14.138Z,101499.28
2023-02-08T21:39:47.318Z,101502.75
2023-02-08T21:42:19.143Z,101499.31
2023-02-08T21:44:50.824Z,101498.50
2023-02-08T21:47:22.528Z,101490.63
2023-02-08T21:50:12.782Z,101486.38
2023-02-08T21:53:03.010Z,101486.41
2023-02-08T21:55:34.783Z,101478.59
2023-02-08T21:58:06.451Z,101469.03
2023-02-08T22:00:38.160Z,101468.09
2023-02-08T22:03:09.864Z,101460.31
2023-02-08T22:06:00.010Z,101458.63
2023-02-08T22:08:32.965Z,101455.13
2023-02-08T22:11:05.142Z,101455.94
2023-02-08T22:13:37.084Z,101452.59
2023-02-08T22:16:09.407Z,101450.03
2023-02-08T22:18:41.551Z,101459.56
2023-02-08T22:21:16.210Z,101451.81
2023-02-08T22:23:47.936Z,101448.38
2023-02-08T22:26:19.619Z,101442.31
2023-02-08T22:28:51.376Z,101444.13
2023-02-08T22:31:23.198Z,101446.06
2023-02-08T22:33:55.310Z,101444.44
2023-02-08T22:36:28.092Z,101448.72
2023-02-08T22:38:59.820Z,101444.38
2023-02-08T22:41:31.573Z,101439.13
2023-02-08T22:44:03.355Z,101438.34
2023-02-08T22:46:35.038Z,101428.06
2023-02-08T22:49:08.654Z,101427.34
2023-02-08T22:51:40.489Z,101430.84
2023-02-08T22:54:12.253Z,101424.91
2023-02-08T22:56:43.928Z,101418.09
2023-02-08T22:59:15.656Z,101415.41
2023-02-08T23:01:47.428Z,101413.84
2023-02-08T23:04:19.218Z,101405.31
2023-02-08T23:06:51.322Z,101417.41
2023-02-08T23:09:23.541Z,101417.41
2023-02-08T23:11:55.347Z,101422.59
2023-02-08T23:14:27.436Z,101420.81
2023-02-08T23:16:59.107Z,101419.91
2023-02-08T23:29:31.058Z,101418.22
2023-02-08T23:32:04.202Z,101421.91
2023-02-08T23:34:39.925Z,101411.19
2023-02-08T23:37:37.019Z,101417.03
2023-02-08T23:40:10.994Z,101419.88
2023-02-08T23:42:42.707Z,101409.75
2023-02-08T23:45:14.580Z,101409.16
2023-02-08T23:47:46.290Z,101407.59
2023-02-08T23:50:18.094Z,101407.75
2023-02-08T23:52:49.861Z,101410.50
2023-02-08T23:55:21.876Z,101411.75
2023-02-08T23:57:53.534Z,101401.41
